Time;durP1;ratioP1;P1;durP2;ratioP2;P2;SDS_P1;SDS_P2;PMS_P1;PMS_P2;Temp;Humidity;BMP_temperature;BMP_pressure;BME280_temperature;BME280_humidity;BME280_pressure;Samples;Min_cycle;Max_cycle;Signal;HPM_P1;HPM_P2
2022/12/01 00:02:05;;;;;;;8.70;5.88;;;20.60;63.10;;;;;;5022567;28;87469;-84
2022/12/01 00:04:31;;;;;;;6.88;5.28;;;20.60;63.10;;;;;;5020834;27;88305;-84
2022/12/01 00:06:56;;;;;;;7.72;6.18;;;20.60;63.10;;;;;;5023196;28;88441;-84
2022/12/01 00:12:06;;;;;;;13.77;5.85;;;20.50;63.00;;;;;;5022049;27;87418;-85
2022/12/01 00:14:32;;;;;;;6.00;5.35;;;20.50;63.00;;;;;;5022430;28;90428;-85
2022/12/01 00:16:57;;;;;;;6.70;5.40;;;20.50;62.90;;;;;;5024646;27;90016;-84
2022/12/01 00:19:26;;;;;;;7.50;5.57;;;20.50;63.10;;;;;;5025262;28;87413;-84
2022/12/01 00:21:53;;;;;;;7.72;5.68;;;20.50;63.10;;;;;;5025951;28;87161;-85
2022/12/01 00:24:19;;;;;;;8.18;5.70;;;20.50;63.10;;;;;;5026894;27;87827;-84
2022/12/01 00:26:44;;;;;;;7.00;5.00;;;20.40;63.10;;;;;;5026237;27;87966;-85
2022/12/01 00:29:10;;;;;;;7.97;5.72;;;20.50;63.30;;;;;;5025230;27;87336;-85
2022/12/01 00:31:36;;;;;;;6.93;5.28;;;20.40;63.20;;;;;;5026426;27;87389;-84
2022/12/01 00:34:01;;;;;;;6.57;5.47;;;20.40;63.30;;;;;;5025595;28;87912;-85
2022/12/01 00:36:27;;;;;;;6.57;5.32;;;20.40;63.00;;;;;;5025777;27;88172;-84
2022/12/01 00:38:54;;;;;;;6.95;4.93;;;20.40;63.30;;;;;;5024695;28;88259;-84
2022/12/01 00:41:21;;;;;;;8.95;6.13;;;20.40;63.30;;;;;;5023151;28;90859;-84
2022/12/01 00:43:47;;;;;;;8.48;5.53;;;20.40;62.90;;;;;;5026724;27;88655;-84
2022/12/01 00:46:12;;;;;;;7.65;5.60;;;20.40;63.20;;;;;;5024842;28;86949;-85
2022/12/01 00:48:38;;;;;;;7.22;5.93;;;20.40;63.20;;;;;;5026668;27;87853;-84
2022/12/01 00:51:04;;;;;;;7.63;5.43;;;20.40;63.20;;;;;;5024183;27;87366;-84
2022/12/01 00:53:30;;;;;;;7.57;5.57;;;20.30;63.30;;;;;;5025334;28;88597;-85
2022/12/01 00:55:55;;;;;;;6.88;5.63;;;20.30;63.00;;;;;;5025186;27;87241;-84
2022/12/01 00:58:22;;;;;;;7.75;5.68;;;20.30;63.50;;;;;;5025089;28;87258;-84
2022/12/01 01:00:48;;;;;;;7.47;5.43;;;20.30;63.40;;;;;;5004892;28;91256;-84
2022/12/01 01:03:14;;;;;;;7.40;5.60;;;20.30;63.30;;;;;;5020052;27;89135;-84
2022/12/01 01:05:41;;;;;;;7.82;5.72;;;20.30;63.60;;;;;;5024566;28;88382;-85
2022/12/01 01:08:09;;;;;;;7.88;5.65;;;20.30;63.50;;;;;;5026122;27;86992;-85
2022/12/01 01:10:39;;;;;;;8.45;5.97;;;20.30;63.60;;;;;;5023229;28;87414;-84
2022/12/01 01:13:05;;;;;;;7.88;5.45;;;20.30;63.40;;;;;;5023047;28;89017;-85
2022/12/01 01:15:30;;;;;;;6.32;5.22;;;20.30;63.40;;;;;;5025270;27;87736;-85
2022/12/01 01:17:56;;;;;;;7.07;5.45;;;20.30;63.30;;;;;;5024974;27;87579;-84
2022/12/01 01:20:22;;;;;;;6.53;5.32;;;20.20;63.40;;;;;;5023502;28;88198;-85
2022/12/01 01:22:47;;;;;;;6.15;5.10;;;20.20;63.30;;;;;;5025530;27;88157;-85
2022/12/01 01:25:13;;;;;;;6.65;5.25;;;20.20;63.30;;;;;;5026161;28;88299;-84
2022/12/01 01:27:38;;;;;;;7.00;5.45;;;20.20;63.30;;;;;;5023919;27;88553;-84
2022/12/01 01:30:05;;;;;;;6.72;5.38;;;20.20;63.30;;;;;;5024404;28;87145;-84
2022/12/01 01:32:30;;;;;;;7.55;5.32;;;20.20;63.30;;;;;;5024924;27;87870;-84
2022/12/01 01:34:56;;;;;;;8.88;5.78;;;20.20;63.40;;;;;;5023171;27;88130;-85
2022/12/01 01:37:21;;;;;;;6.15;5.20;;;20.20;63.30;;;;;;5025219;28;86873;-83
2022/12/01 01:39:47;;;;;;;7.63;5.85;;;20.20;63.50;;;;;;5026749;28;87567;-84
2022/12/01 01:42:13;;;;;;;7.38;5.63;;;20.20;63.30;;;;;;5023348;27;88560;-85
2022/12/01 01:44:52;;;;;;;7.95;5.95;;;20.10;63.20;;;;;;5023400;27;87861;-84
2022/12/01 01:47:31;;;;;;;5.67;5.07;;;20.10;63.10;;;;;;5024096;27;87521;-85
2022/12/01 01:50:04;;;;;;;6.93;5.88;;;20.10;63.10;;;;;;5024637;28;87432;-85
2022/12/01 01:52:30;;;;;;;6.63;5.75;;;20.10;63.10;;;;;;5024025;27;89002;-84
2022/12/01 01:54:56;;;;;;;6.63;5.53;;;20.10;63.20;;;;;;5024870;28;89109;-84
2022/12/01 01:57:30;;;;;;;6.43;5.28;;;20.10;63.30;;;;;;5025407;27;87607;-84
2022/12/01 02:00:10;;;;;;;6.93;5.78;;;20.10;63.20;;;;;;5023878;27;87415;-84
2022/12/01 02:02:39;;;;;;;6.22;5.05;;;20.10;63.30;;;;;;5022283;27;90776;-84
2022/12/01 02:05:09;;;;;;;6.10;4.87;;;20.10;63.20;;;;;;5026081;27;88770;-85
2022/12/01 02:07:39;;;;;;;7.38;5.72;;;20.10;63.20;;;;;;5024134;27;87207;-85
2022/12/01 02:10:07;;;;;;;7.13;5.60;;;20.10;63.20;;;;;;5024749;28;86725;-84
2022/12/01 02:12:48;;;;;;;7.07;5.60;;;20.10;63.30;;;;;;5021852;27;91887;-84
2022/12/01 02:15:17;;;;;;;7.32;5.45;;;20.00;63.30;;;;;;5024347;27;88270;-85
2022/12/01 02:18:05;;;;;;;6.63;5.23;;;20.00;63.30;;;;;;5023247;27;88144;-85
2022/12/01 02:21:05;;;;;;;6.65;5.28;;;20.00;63.30;;;;;;5023595;28;87328;-84
2022/12/01 02:23:58;;;;;;;6.18;5.47;;;20.00;63.40;;;;;;4941878;28;87414;-84
2022/12/01 02:26:38;;;;;;;6.78;5.35;;;20.00;63.60;;;;;;4940796;28;87530;-84
2022/12/01 02:29:04;;;;;;;6.15;5.10;;;19.90;63.40;;;;;;4941849;28;87395;-84
2022/12/01 02:31:52;;;;;;;5.95;4.88;;;19.90;63.50;;;;;;4940524;28;87457;-84
2022/12/01 02:34:38;;;;;;;6.35;5.25;;;19.90;63.60;;;;;;4941296;28;87955;-84
2022/12/01 02:37:14;;;;;;;6.28;5.35;;;19.90;63.50;;;;;;4915487;28;95237;-84
2022/12/01 02:39:59;;;;;;;6.53;5.47;;;19.90;63.40;;;;;;4921397;28;87017;-84
2022/12/01 02:42:52;;;;;;;6.90;5.38;;;19.90;63.30;;;;;;4922756;28;87194;-84
2022/12/01 02:45:38;;;;;;;7.13;5.65;;;19.90;63.40;;;;;;4921443;28;89370;-84
2022/12/01 02:48:08;;;;;;;7.30;5.70;;;19.90;63.30;;;;;;4855213;29;88931;-84
2022/12/01 02:50:36;;;;;;;6.15;5.55;;;19.90;63.30;;;;;;4865328;28;87135;-84
2022/12/01 02:53:04;;;;;;;6.35;5.20;;;19.90;63.30;;;;;;4869089;28;87340;-84
2022/12/01 02:55:30;;;;;;;6.70;5.35;;;19.90;63.30;;;;;;4855763;29;88637;-84
2022/12/01 02:57:55;;;;;;;6.95;5.05;;;19.90;63.50;;;;;;4856119;28;88298;-85
2022/12/01 03:00:21;;;;;;;6.45;5.38;;;19.90;63.40;;;;;;4924631;28;87104;-84
2022/12/01 03:03:23;;;;;;;8.00;5.65;;;19.90;63.50;;;;;;4952617;28;87516;-84
2022/12/01 03:06:11;;;;;;;6.40;5.35;;;19.80;63.60;;;;;;4952319;28;90382;-84
2022/12/01 03:08:51;;;;;;;6.95;5.93;;;19.80;63.60;;;;;;4960116;28;89056;-85
2022/12/01 03:11:43;;;;;;;8.50;5.90;;;19.80;63.50;;;;;;4959677;28;88518;-84
2022/12/01 03:14:43;;;;;;;6.55;5.43;;;19.90;63.50;;;;;;4953087;28;87538;-84
2022/12/01 03:17:16;;;;;;;6.95;5.75;;;19.80;63.50;;;;;;4847149;28;88800;-84
2022/12/01 03:19:54;;;;;;;7.05;5.55;;;19.80;64.30;;;;;;4844775;29;88507;-84
2022/12/01 03:22:49;;;;;;;6.70;5.93;;;19.80;63.50;;;;;;4847402;29;87118;-84
2022/12/01 03:25:16;;;;;;;7.03;5.40;;;19.80;63.60;;;;;;4892925;28;91562;-84
2022/12/01 03:27:44;;;;;;;6.78;5.68;;;19.80;63.40;;;;;;4920427;28;88245;-84
2022/12/01 03:30:11;;;;;;;7.35;6.13;;;19.80;63.30;;;;;;4902444;28;87998;-84
2022/12/01 03:32:46;;;;;;;6.68;5.25;;;19.80;63.30;;;;;;4901995;28;87957;-84
2022/12/01 03:35:30;;;;;;;6.80;5.25;;;19.70;63.40;;;;;;4901932;28;87130;-85
2022/12/01 03:38:05;;;;;;;6.57;5.90;;;19.70;63.20;;;;;;4901953;28;89952;-84
2022/12/01 03:40:32;;;;;;;5.80;5.20;;;19.70;63.20;;;;;;4903200;28;89267;-84
2022/12/01 03:43:06;;;;;;;7.72;5.80;;;19.70;63.30;;;;;;4904475;28;87488;-84
2022/12/01 03:46:06;;;;;;;6.75;5.25;;;19.70;63.30;;;;;;4902595;28;88138;-84
2022/12/01 03:48:31;;;;;;;6.57;5.38;;;19.70;63.50;;;;;;4902015;28;88401;-84
2022/12/01 03:51:27;;;;;;;7.72;5.30;;;19.70;63.40;;;;;;4903166;28;87641;-84
2022/12/01 03:54:14;;;;;;;8.27;5.45;;;19.70;63.30;;;;;;4987019;28;87471;-84
2022/12/01 03:56:52;;;;;;;6.43;5.18;;;19.70;63.50;;;;;;4983416;28;87507;-85
2022/12/01 03:59:20;;;;;;;6.10;5.30;;;19.70;63.40;;;;;;4984098;28;88615;-84
2022/12/01 04:01:45;;;;;;;7.93;6.32;;;19.70;63.20;;;;;;4999938;28;88333;-84
2022/12/01 04:04:13;;;;;;;6.45;5.47;;;19.60;63.20;;;;;;5007578;28;87948;-84
2022/12/01 04:06:44;;;;;;;6.40;5.47;;;19.70;63.30;;;;;;5003624;28;87927;-85
2022/12/01 04:09:10;;;;;;;5.82;5.07;;;19.70;63.40;;;;;;5006315;28;89091;-84
2022/12/01 04:14:20;;;;;;;9.05;6.32;;;19.60;63.40;;;;;;5006484;28;87495;-84
2022/12/01 04:16:46;;;;;;;6.40;5.50;;;19.60;63.50;;;;;;5005393;28;87951;-84
2022/12/01 04:19:11;;;;;;;7.05;5.55;;;19.60;63.50;;;;;;5004580;28;89106;-84
2022/12/01 04:21:37;;;;;;;6.93;5.70;;;19.60;63.40;;;;;;5005189;28;88257;-84
2022/12/01 04:24:03;;;;;;;7.85;5.57;;;19.60;63.30;;;;;;5006416;28;88125;-85
2022/12/01 04:26:32;;;;;;;7.75;6.05;;;19.60;63.30;;;;;;5006273;28;88844;-84
2022/12/01 04:28:59;;;;;;;6.18;5.45;;;19.60;63.40;;;;;;5003083;28;92905;-85
2022/12/01 04:31:25;;;;;;;6.40;5.60;;;19.60;63.30;;;;;;5005277;28;91397;-84
2022/12/01 04:33:50;;;;;;;6.43;5.78;;;19.60;63.30;;;;;;5005664;28;87078;-84
2022/12/01 04:36:16;;;;;;;7.47;6.30;;;19.60;63.40;;;;;;5005658;28;88899;-84
2022/12/01 04:38:41;;;;;;;5.22;4.72;;;19.60;63.20;;;;;;5004674;28;88617;-84
2022/12/01 04:41:09;;;;;;;6.38;5.70;;;19.60;63.30;;;;;;5004307;28;88115;-84
2022/12/01 04:43:35;;;;;;;7.57;5.20;;;19.60;63.40;;;;;;5007046;28;86866;-85
2022/12/01 04:46:00;;;;;;;7.95;5.90;;;19.50;63.20;;;;;;5006669;28;86535;-84
2022/12/01 04:48:26;;;;;;;7.45;6.25;;;19.50;63.30;;;;;;5005647;28;88647;-84
2022/12/01 04:50:52;;;;;;;6.78;6.03;;;19.50;63.40;;;;;;5004789;28;89555;-84
2022/12/01 04:53:17;;;;;;;6.18;4.97;;;19.50;63.20;;;;;;5005140;28;88439;-84
2022/12/01 04:55:43;;;;;;;7.80;6.45;;;19.50;63.40;;;;;;5004411;28;87932;-84
2022/12/01 04:58:08;;;;;;;6.72;5.60;;;19.50;63.10;;;;;;5005999;28;90511;-84
2022/12/01 05:00:34;;;;;;;6.80;5.78;;;19.50;63.10;;;;;;5006532;28;87540;-84
2022/12/01 05:03:00;;;;;;;7.50;5.43;;;19.50;63.50;;;;;;5002433;28;87052;-84
2022/12/01 05:05:25;;;;;;;6.80;5.20;;;19.50;63.30;;;;;;5005441;28;87050;-84
2022/12/01 05:07:51;;;;;;;7.50;6.10;;;19.50;63.40;;;;;;5003670;28;89074;-84
2022/12/01 05:10:17;;;;;;;8.85;6.20;;;19.50;63.40;;;;;;5005370;28;88196;-84
2022/12/01 05:12:45;;;;;;;6.25;4.90;;;19.50;63.40;;;;;;5006147;28;87400;-84
2022/12/01 05:15:11;;;;;;;6.80;5.60;;;19.50;63.30;;;;;;5005016;28;87503;-84
2022/12/01 05:17:37;;;;;;;6.45;5.35;;;19.50;63.50;;;;;;5005506;28;89569;-85
2022/12/01 05:22:48;;;;;;;9.10;5.82;;;19.50;63.20;;;;;;5005824;28;87371;-85
2022/12/01 05:25:13;;;;;;;6.90;5.72;;;19.50;63.30;;;;;;5004176;28;86935;-84
2022/12/01 05:27:39;;;;;;;7.32;5.88;;;19.50;63.30;;;;;;5004106;28;88041;-84
2022/12/01 05:30:05;;;;;;;7.07;5.82;;;19.40;63.10;;;;;;5004616;28;88051;-84
2022/12/01 05:32:31;;;;;;;7.97;5.45;;;19.40;63.20;;;;;;5004112;28;87380;-84
2022/12/01 05:34:57;;;;;;;7.65;6.13;;;19.40;63.30;;;;;;5003102;28;88138;-84
2022/12/01 05:37:22;;;;;;;7.22;5.80;;;19.40;63.20;;;;;;5004191;28;89045;-83
2022/12/01 05:39:48;;;;;;;6.57;5.30;;;19.40;63.00;;;;;;5003881;28;88440;-84
2022/12/01 05:42:13;;;;;;;7.22;5.63;;;19.40;63.20;;;;;;5005060;28;88472;-84
2022/12/01 05:44:39;;;;;;;8.00;5.95;;;19.40;63.20;;;;;;5003890;28;87054;-84
2022/12/01 05:47:05;;;;;;;6.70;5.72;;;19.40;63.20;;;;;;5003418;28;88181;-84
2022/12/01 05:49:30;;;;;;;6.15;5.30;;;19.40;63.30;;;;;;5004072;28;88990;-84
2022/12/01 05:51:56;;;;;;;6.82;5.70;;;19.40;63.30;;;;;;5003390;28;87045;-84
2022/12/01 05:54:22;;;;;;;6.10;5.22;;;19.40;64.00;;;;;;5003517;28;88843;-84
2022/12/01 05:56:47;;;;;;;7.20;5.50;;;19.40;63.30;;;;;;5004550;28;87868;-84
2022/12/01 05:59:13;;;;;;;7.72;5.90;;;19.40;63.30;;;;;;5005540;28;88221;-84
2022/12/01 06:01:38;;;;;;;6.38;5.50;;;19.40;63.20;;;;;;5004522;28;87768;-84
2022/12/01 06:04:04;;;;;;;7.45;5.78;;;19.40;63.30;;;;;;5005318;28;87473;-84
2022/12/01 06:06:30;;;;;;;6.72;5.05;;;19.40;63.10;;;;;;5004884;28;89953;-84
2022/12/01 06:08:55;;;;;;;6.43;5.43;;;19.40;63.00;;;;;;5004932;28;88483;-85
2022/12/01 06:11:21;;;;;;;7.15;5.90;;;19.40;63.00;;;;;;5005097;28;87381;-84
2022/12/01 06:13:47;;;;;;;6.50;5.60;;;19.40;62.90;;;;;;5002280;28;87801;-85
2022/12/01 06:16:12;;;;;;;6.65;5.72;;;19.40;62.90;;;;;;5004174;28;90988;-85
2022/12/01 06:18:38;;;;;;;7.35;5.63;;;19.40;63.00;;;;;;5002612;28;88132;-85
2022/12/01 06:21:05;;;;;;;6.90;5.78;;;19.40;62.80;;;;;;5005304;28;87289;-84
2022/12/01 06:23:31;;;;;;;6.97;6.03;;;19.50;62.90;;;;;;5004969;28;87396;-85
2022/12/01 06:25:57;;;;;;;7.03;5.97;;;19.40;63.10;;;;;;5003491;28;88961;-85
2022/12/01 06:28:23;;;;;;;6.47;5.50;;;19.50;62.90;;;;;;5004879;28;89272;-84
2022/12/01 06:30:48;;;;;;;6.82;6.00;;;19.40;62.90;;;;;;5002856;28;88274;-85
2022/12/01 06:33:14;;;;;;;6.30;5.50;;;19.50;62.80;;;;;;5002707;28;87426;-85
2022/12/01 06:35:40;;;;;;;6.90;5.50;;;19.50;62.70;;;;;;5003958;28;88409;-84
2022/12/01 06:38:05;;;;;;;7.07;5.43;;;19.50;62.90;;;;;;5004043;28;87504;-85
2022/12/01 06:40:31;;;;;;;7.47;5.93;;;19.60;62.40;;;;;;5003995;28;86936;-84
2022/12/01 06:43:04;;;;;;;6.57;5.55;;;19.60;62.60;;;;;;5005162;28;87799;-84
2022/12/01 06:45:30;;;;;;;5.70;4.97;;;19.70;62.40;;;;;;5002580;28;90988;-84
2022/12/01 06:47:56;;;;;;;10.30;5.65;;;19.80;62.40;;;;;;5002501;28;88363;-84
2022/12/01 06:50:23;;;;;;;11.60;7.28;;;19.90;62.10;;;;;;5010519;28;87483;-84
2022/12/01 06:52:49;;;;;;;9.57;5.93;;;20.10;61.40;;;;;;5005076;28;87346;-86
2022/12/01 06:55:15;;;;;;;8.10;5.70;;;20.30;61.20;;;;;;5004434;28;89002;-86
2022/12/01 06:57:40;;;;;;;10.13;5.75;;;20.50;60.90;;;;;;5003048;28;88774;-85
2022/12/01 07:00:07;;;;;;;13.13;6.10;;;20.70;60.70;;;;;;5003209;28;87529;-86
2022/12/01 07:02:33;;;;;;;12.73;7.10;;;20.90;60.60;;;;;;5002090;28;91140;-85
2022/12/01 07:04:59;;;;;;;19.83;9.35;;;20.90;60.20;;;;;;5004109;28;89751;-85
2022/12/01 07:07:24;;;;;;;16.33;10.55;;;21.00;59.90;;;;;;5002907;28;87725;-85
2022/12/01 07:09:50;;;;;;;20.50;9.02;;;21.10;58.00;;;;;;5002866;28;87458;-87
2022/12/01 07:12:15;;;;;;;14.35;8.98;;;21.10;59.10;;;;;;5002422;28;87010;-84
2022/12/01 07:14:41;;;;;;;16.52;8.50;;;21.20;59.50;;;;;;5000144;28;87054;-84
2022/12/01 07:17:08;;;;;;;18.75;9.18;;;21.20;59.50;;;;;;5001226;28;87380;-84
2022/12/01 07:19:34;;;;;;;21.55;9.50;;;21.30;59.70;;;;;;5003368;28;88207;-85
2022/12/01 07:22:00;;;;;;;17.95;8.60;;;21.30;59.30;;;;;;4999263;28;90832;-85
2022/12/01 07:24:25;;;;;;;22.42;10.48;;;21.30;59.50;;;;;;5002882;28;88949;-86
2022/12/01 07:26:51;;;;;;;20.13;9.43;;;21.30;59.00;;;;;;5000143;28;88797;-85
2022/12/01 07:29:17;;;;;;;20.05;10.32;;;21.30;59.40;;;;;;5003421;28;87372;-85
2022/12/01 07:31:42;;;;;;;20.25;10.00;;;21.30;59.60;;;;;;5003198;28;87071;-85
2022/12/01 07:34:12;;;;;;;20.45;9.77;;;21.20;59.60;;;;;;5002370;28;88594;-86
2022/12/01 07:36:37;;;;;;;21.25;10.75;;;21.20;59.60;;;;;;5003926;28;88179;-86
2022/12/01 07:39:05;;;;;;;19.98;9.18;;;21.20;59.70;;;;;;5002902;28;87376;-84
2022/12/01 07:41:31;;;;;;;15.93;8.48;;;21.20;59.90;;;;;;5002159;28;87600;-84
2022/12/01 07:43:57;;;;;;;16.67;9.43;;;21.30;60.30;;;;;;5002883;28;89639;-85
2022/12/01 07:46:25;;;;;;;18.70;9.48;;;21.30;59.90;;;;;;5005700;28;89873;-85
2022/12/01 07:48:52;;;;;;;23.88;10.25;;;21.30;59.60;;;;;;5008526;28;86894;-88
2022/12/01 07:51:18;;;;;;;25.67;10.95;;;21.40;57.40;;;;;;5001525;28;87662;-88
2022/12/01 07:53:45;;;;;;;23.27;10.15;;;21.40;58.70;;;;;;5000148;28;88712;-88
2022/12/01 07:56:11;;;;;;;23.65;11.00;;;21.40;57.80;;;;;;5001775;28;88869;-87
2022/12/01 07:58:37;;;;;;;27.08;12.40;;;21.40;58.00;;;;;;5000503;28;88089;-86
2022/12/01 08:01:08;;;;;;;26.10;12.50;;;21.40;58.00;;;;;;5010761;28;90898;-86
2022/12/01 08:03:34;;;;;;;22.45;10.95;;;21.40;58.30;;;;;;5003143;28;88580;-85
2022/12/01 08:06:00;;;;;;;21.58;10.55;;;21.40;58.80;;;;;;5002090;28;87338;-85
2022/12/01 08:08:26;;;;;;;22.98;11.50;;;21.30;59.00;;;;;;5000902;28;88232;-84
2022/12/01 08:10:52;;;;;;;28.55;12.80;;;21.30;59.30;;;;;;5002555;28;87728;-87
2022/12/01 08:13:19;;;;;;;27.90;13.38;;;21.30;59.80;;;;;;5003154;28;87800;-87
2022/12/01 08:15:45;;;;;;;28.75;12.00;;;21.40;59.90;;;;;;5001114;28;88359;-88
2022/12/01 08:18:11;;;;;;;31.00;14.05;;;21.40;59.10;;;;;;5001238;28;87074;-89
2022/12/01 08:20:36;;;;;;;36.05;15.30;;;21.50;58.00;;;;;;5003101;28;87334;-88
2022/12/01 08:23:06;;;;;;;32.63;14.45;;;21.50;56.60;;;;;;5002737;28;88372;-88
2022/12/01 08:25:35;;;;;;;32.50;13.63;;;21.50;56.60;;;;;;4999830;28;90181;-88
2022/12/01 08:28:04;;;;;;;30.60;13.53;;;21.50;57.60;;;;;;5000979;28;87737;-89
2022/12/01 08:30:30;;;;;;;26.85;12.50;;;21.60;58.00;;;;;;4995289;28;90565;-88
2022/12/01 08:32:57;;;;;;;29.52;13.10;;;21.60;58.60;;;;;;5010482;28;88323;-87
2022/12/01 08:35:24;;;;;;;26.45;12.70;;;21.70;58.90;;;;;;5017827;28;89093;-86
2022/12/01 08:37:53;;;;;;;33.25;12.52;;;21.80;58.90;;;;;;4985054;27;87301;-86
2022/12/01 08:40:20;;;;;;;31.60;12.63;;;21.90;59.00;;;;;;5023459;28;90670;-86
2022/12/01 08:42:45;;;;;;;25.77;11.55;;;21.90;59.10;;;;;;5022000;28;88588;-87
2022/12/01 08:45:11;;;;;;;30.10;11.70;;;22.00;59.10;;;;;;5021516;28;87388;-87
2022/12/01 08:47:47;;;;;;;22.05;12.15;;;22.10;59.10;;;;;;5021541;28;88466;-87
2022/12/01 08:50:12;;;;;;;25.38;11.48;;;22.10;59.10;;;;;;5022408;28;87439;-86
2022/12/01 08:52:38;;;;;;;24.77;12.35;;;22.10;59.20;;;;;;5022302;28;89109;-87
2022/12/01 08:55:04;;;;;;;23.08;11.68;;;22.10;59.20;;;;;;5021468;28;87983;-87
2022/12/01 08:57:30;;;;;;;31.08;12.82;;;22.10;59.00;;;;;;5021373;28;87963;-87
2022/12/01 08:59:56;;;;;;;30.38;13.90;;;22.10;58.00;;;;;;5025057;27;87515;-86
2022/12/01 09:02:22;;;;;;;25.48;12.93;;;22.10;57.50;;;;;;5025190;28;88565;-86
2022/12/01 09:04:51;;;;;;;28.98;12.75;;;22.10;57.40;;;;;;5020094;27;88289;-86
2022/12/01 09:07:18;;;;;;;23.67;12.17;;;22.00;56.80;;;;;;5037802;27;87101;-88
2022/12/01 09:09:44;;;;;;;32.25;13.10;;;22.00;57.60;;;;;;5025667;27;87540;-86
2022/12/01 09:12:14;;;;;;;26.15;13.07;;;22.00;57.00;;;;;;5024739;27;87960;-88
2022/12/01 09:14:41;;;;;;;22.40;12.50;;;22.10;57.00;;;;;;5025835;27;88428;-86
2022/12/01 09:17:08;;;;;;;27.42;12.80;;;22.10;57.90;;;;;;5018703;27;89614;-86
2022/12/01 09:19:34;;;;;;;25.73;11.98;;;22.10;58.00;;;;;;5034194;27;87546;-88
2022/12/01 09:22:08;;;;;;;27.02;12.68;;;22.10;58.30;;;;;;5024405;27;89377;-87
2022/12/01 09:24:34;;;;;;;24.08;12.30;;;22.10;58.60;;;;;;5024237;27;88985;-87
2022/12/01 09:27:00;;;;;;;26.42;12.95;;;22.10;58.80;;;;;;5024356;27;87557;-88
2022/12/01 09:29:25;;;;;;;21.95;12.82;;;22.20;58.20;;;;;;5023673;27;87481;-86
2022/12/01 09:31:55;;;;;;;27.63;11.70;;;22.20;58.50;;;;;;5023923;27;88854;-87
2022/12/01 09:34:20;;;;;;;;;;;22.20;58.60;;;;;;5024650;28;88237;-87
2022/12/01 09:36:47;;;;;;;27.20;15.20;;;22.20;58.80;;;;;;5024654;28;86899;-87
2022/12/01 09:39:18;;;;;;;36.72;17.00;;;22.20;58.80;;;;;;5025374;28;86682;-87
2022/12/01 09:41:58;;;;;;;36.15;19.92;;;22.20;58.80;;;;;;5025875;28;92078;-88
2022/12/01 09:44:48;;;;;;;32.25;17.33;;;22.20;58.80;;;;;;5022802;27;90872;-87
2022/12/01 09:47:17;;;;;;;31.75;19.00;;;22.20;58.90;;;;;;5025536;28;92768;-86
2022/12/01 09:49:54;;;;;;;;;;;22.20;58.90;;;;;;5013559;27;87471;-86
2022/12/01 09:52:22;;;;;;;27.75;16.10;;;22.20;59.10;;;;;;5038475;27;88271;-88
2022/12/01 09:54:48;;;;;;;33.05;17.52;;;22.20;59.10;;;;;;5003678;28;92510;-87
2022/12/01 09:57:22;;;;;;;28.35;17.60;;;22.20;59.10;;;;;;5008041;27;87930;-87
2022/12/01 09:59:49;;;;;;;32.58;17.52;;;22.20;59.20;;;;;;5024508;28;86979;-88
2022/12/01 10:02:32;;;;;;;29.33;17.48;;;22.20;59.30;;;;;;5025242;27;88845;-87
2022/12/01 10:05:04;;;;;;;24.92;16.00;;;22.20;59.40;;;;;;5023601;27;88408;-87
2022/12/01 10:07:38;;;;;;;26.70;15.88;;;22.20;59.40;;;;;;5015003;28;87383;-88
2022/12/01 10:10:13;;;;;;;23.92;13.70;;;22.20;59.70;;;;;;5023427;28;87954;-86
2022/12/01 10:12:42;;;;;;;23.88;14.18;;;22.20;56.10;;;;;;5023366;28;89035;-88
2022/12/01 10:15:26;;;;;;;24.38;15.15;;;22.30;57.20;;;;;;5024258;28;88817;-86
2022/12/01 10:18:11;;;;;;;23.42;15.27;;;22.30;58.30;;;;;;5023785;27;87485;-87
2022/12/01 10:21:04;;;;;;;26.02;14.77;;;22.30;58.70;;;;;;5024119;28;87727;-86
2022/12/01 10:23:52;;;;;;;25.45;14.48;;;22.40;58.80;;;;;;5022837;28;88150;-88
2022/12/01 10:26:27;;;;;;;23.30;13.82;;;22.40;58.70;;;;;;5022844;27;87823;-87
2022/12/01 10:28:58;;;;;;;25.17;14.07;;;22.60;58.40;;;;;;5023574;28;87376;-87
2022/12/01 10:31:48;;;;;;;21.63;14.23;;;22.70;58.20;;;;;;5023770;27;87045;-87
2022/12/01 10:34:35;;;;;;;22.20;13.07;;;22.80;58.50;;;;;;5022325;28;91632;-88
2022/12/01 10:37:03;;;;;;;22.83;14.70;;;22.80;58.10;;;;;;5004752;28;91678;-88
2022/12/01 10:39:42;;;;;;;22.77;14.02;;;22.80;58.10;;;;;;5023696;28;87888;-87
2022/12/01 10:42:34;;;;;;;20.00;11.90;;;22.90;57.90;;;;;;5024481;28;87349;-89
2022/12/01 10:45:05;;;;;;;19.83;13.75;;;23.00;57.40;;;;;;4980864;28;88594;-88
2022/12/01 10:47:31;;;;;;;25.02;13.93;;;23.00;57.30;;;;;;4973857;28;91293;-88
2022/12/01 10:50:06;;;;;;;26.52;13.77;;;23.00;57.90;;;;;;4984783;28;87342;-89
2022/12/01 10:52:39;;;;;;;23.13;13.57;;;22.90;57.80;;;;;;4969855;28;87118;-88
2022/12/01 10:55:26;;;;;;;20.75;13.32;;;22.90;57.60;;;;;;4982490;28;88410;-89
2022/12/01 10:57:55;;;;;;;22.60;13.93;;;22.90;57.90;;;;;;4982093;28;92670;-87
2022/12/01 11:00:27;;;;;;;25.27;14.85;;;22.90;57.90;;;;;;4969930;28;87544;-88
2022/12/01 11:02:53;;;;;;;23.83;13.15;;;22.80;57.90;;;;;;4981890;28;88161;-89
2022/12/01 11:05:34;;;;;;;20.67;13.48;;;22.80;58.20;;;;;;4981003;28;89686;-87
2022/12/01 11:08:00;;;;;;;20.90;12.75;;;22.80;58.40;;;;;;4981280;28;88647;-85
2022/12/01 11:10:30;;;;;;;24.27;12.88;;;22.80;58.50;;;;;;4980686;28;87302;-86
2022/12/01 11:13:12;;;;;;;21.33;12.10;;;22.90;58.70;;;;;;4981878;28;87917;-87
2022/12/01 11:15:47;;;;;;;24.25;13.10;;;22.90;58.70;;;;;;4979508;28;88065;-86
2022/12/01 11:18:33;;;;;;;19.45;12.80;;;22.80;58.70;;;;;;4979192;28;87479;-86
2022/12/01 11:21:12;;;;;;;18.42;12.85;;;22.90;58.70;;;;;;4978504;28;87672;-86
2022/12/01 11:23:44;;;;;;;21.42;13.05;;;22.90;58.90;;;;;;5024196;27;90476;-87
2022/12/01 11:26:27;;;;;;;24.52;12.48;;;22.90;58.80;;;;;;5022806;27;88942;-87
2022/12/01 11:29:21;;;;;;;21.67;13.50;;;22.90;59.10;;;;;;5024380;27;88020;-87
2022/12/01 11:31:49;;;;;;;20.05;12.50;;;22.90;59.20;;;;;;4940275;28;88027;-88
2022/12/01 11:34:22;;;;;;;25.73;13.63;;;22.80;59.20;;;;;;4942859;28;87529;-88
2022/12/01 11:36:53;;;;;;;24.45;12.43;;;22.90;58.90;;;;;;4940826;28;91596;-85
2022/12/01 11:39:26;;;;;;;22.10;11.98;;;22.90;58.70;;;;;;4944812;28;88529;-86
2022/12/01 11:41:57;;;;;;;20.85;12.57;;;22.90;58.70;;;;;;4940430;28;92315;-88
2022/12/01 11:44:23;;;;;;;18.20;12.23;;;22.90;58.60;;;;;;4941251;28;89265;-87
2022/12/01 11:46:49;;;;;;;18.30;12.40;;;23.00;58.50;;;;;;4939960;28;88471;-86
2022/12/01 11:49:24;;;;;;;17.65;11.25;;;23.00;58.50;;;;;;4940275;28;90399;-87
2022/12/01 11:51:50;;;;;;;17.80;11.48;;;23.00;58.50;;;;;;4914690;28;87498;-87
2022/12/01 11:54:21;;;;;;;20.02;13.82;;;23.00;58.40;;;;;;4921362;28;87575;-87
2022/12/01 11:56:48;;;;;;;19.15;12.57;;;22.90;55.00;;;;;;4921611;28;89614;-87
2022/12/01 11:59:22;;;;;;;24.05;12.93;;;22.90;55.40;;;;;;4921174;28;89317;-87
2022/12/01 12:01:48;;;;;;;21.88;12.55;;;22.90;55.80;;;;;;4927245;28;87033;-86
2022/12/01 12:04:51;;;;;;;22.38;12.15;;;22.90;56.60;;;;;;4940674;28;88256;-86
2022/12/01 12:07:46;;;;;;;21.73;12.23;;;22.90;56.50;;;;;;4941953;28;91825;-87
2022/12/01 12:10:52;;;;;;;22.73;11.77;;;22.90;57.30;;;;;;5021471;27;92015;-85
2022/12/01 12:13:35;;;;;;;19.55;10.80;;;22.90;55.40;;;;;;5026777;28;88031;-88
2022/12/01 12:16:35;;;;;;;21.30;11.57;;;22.80;56.20;;;;;;5025809;28;87856;-88
2022/12/01 12:19:25;;;;;;;20.00;10.80;;;22.70;55.50;;;;;;5026112;28;92328;-88
2022/12/01 12:22:11;;;;;;;21.90;10.60;;;22.70;56.10;;;;;;5004736;28;92324;-87
2022/12/01 12:24:45;;;;;;;26.48;11.75;;;22.60;57.20;;;;;;4970649;28;88876;-87
2022/12/01 12:27:35;;;;;;;22.45;11.18;;;22.60;57.70;;;;;;4972744;28;86871;-87
2022/12/01 12:30:08;;;;;;;17.70;9.90;;;22.60;58.00;;;;;;4972975;28;87975;-88
2022/12/01 12:32:59;;;;;;;22.45;10.23;;;22.70;57.90;;;;;;4973251;28;88153;-87
2022/12/01 12:35:37;;;;;;;19.83;11.27;;;22.70;57.50;;;;;;4885878;28;87274;-88
2022/12/01 12:38:19;;;;;;;18.80;10.18;;;22.80;58.00;;;;;;4885945;28;87639;-87
2022/12/01 12:40:56;;;;;;;23.25;10.68;;;22.70;58.00;;;;;;4851159;28;89254;-88
2022/12/01 12:43:50;;;;;;;17.35;10.15;;;22.70;59.20;;;;;;4841765;28;89375;-83
2022/12/01 12:46:30;;;;;;;19.67;9.93;;;22.70;59.40;;;;;;4887485;28;87025;-88
2022/12/01 12:49:14;;;;;;;21.02;10.07;;;22.80;59.20;;;;;;4888341;28;91723;-87
2022/12/01 12:52:16;;;;;;;18.98;10.32;;;22.80;59.20;;;;;;4885307;28;89503;-87
2022/12/01 12:54:57;;;;;;;16.10;9.90;;;22.70;59.30;;;;;;4883532;28;89223;-87
2022/12/01 12:57:28;;;;;;;20.65;10.30;;;22.80;59.70;;;;;;4887832;28;88276;-88
2022/12/01 12:59:57;;;;;;;17.27;10.40;;;22.70;59.50;;;;;;4882465;28;89364;-87
2022/12/01 13:02:26;;;;;;;14.93;10.20;;;22.70;59.60;;;;;;4924338;28;88626;-87
2022/12/01 13:05:35;;;;;;;21.48;9.55;;;22.70;59.50;;;;;;4940206;28;92993;-87
2022/12/01 13:08:10;;;;;;;21.00;9.53;;;22.70;59.60;;;;;;4857726;28;87138;-88